Time;durP1;ratioP1;P1;durP2;ratioP2;P2;SDS_P1;SDS_P2;PMS_P1;PMS_P2;Temp;Humidity;BMP_temperature;BMP_pressure;BME280_temperature;BME280_humidity;BME280_pressure;Samples;Min_cycle;Max_cycle;Signal;HPM_P1;HPM_P2
2023/10/24 00:00:36;;;;;;;3.13;2.80;;;15.40;39.30;;;;;;10383819;28;20299;-72
2023/10/24 00:05:40;;;;;;;3.10;2.90;;;15.40;39.30;;;;;;10395112;28;20222;-72
2023/10/24 00:10:44;;;;;;;2.73;2.43;;;15.40;39.60;;;;;;10393844;28;20230;-74
2023/10/24 00:15:47;;;;;;;2.57;2.37;;;15.40;39.50;;;;;;10394192;28;20222;-74
2023/10/24 00:20:52;;;;;;;2.70;2.43;;;15.30;39.30;;;;;;10392700;28;20229;-75
2023/10/24 00:25:55;;;;;;;2.87;2.10;;;15.30;39.80;;;;;;10392359;28;20229;-74
2023/10/24 00:30:59;;;;;;;2.30;2.10;;;15.30;39.50;;;;;;10390929;28;20241;-74
2023/10/24 00:36:04;;;;;;;2.70;2.47;;;15.20;39.50;;;;;;10391026;28;20232;-74
2023/10/24 00:41:07;;;;;;;3.03;2.70;;;15.20;40.00;;;;;;10391367;28;20233;-74
2023/10/24 00:46:12;;;;;;;2.80;2.60;;;15.10;39.60;;;;;;10392780;28;20233;-74
2023/10/24 00:51:17;;;;;;;2.70;2.50;;;15.10;39.90;;;;;;10390810;28;21188;-74
2023/10/24 00:56:21;;;;;;;3.10;2.80;;;15.10;40.20;;;;;;10392733;28;20252;-74
2023/10/24 01:01:25;;;;;;;2.93;2.73;;;15.10;40.10;;;;;;10394418;28;20241;-72
2023/10/24 01:06:29;;;;;;;2.83;2.57;;;15.10;39.90;;;;;;10382690;28;20268;-72
2023/10/24 01:11:33;;;;;;;2.80;2.60;;;15.00;40.90;;;;;;10389037;28;20746;-72
2023/10/24 01:16:43;;;;;;;2.73;2.40;;;14.90;40.10;;;;;;10392145;28;20730;-74
2023/10/24 01:21:48;;;;;;;2.60;2.40;;;14.90;40.90;;;;;;10390449;28;20226;-74
2023/10/24 01:26:53;;;;;;;4.07;2.33;;;14.90;40.50;;;;;;10389438;28;20252;-74
2023/10/24 01:31:56;;;;;;;2.30;2.20;;;14.90;40.20;;;;;;10397644;28;20232;-74
2023/10/24 01:37:01;;;;;;;2.60;2.40;;;14.90;40.10;;;;;;10399452;28;20248;-74
2023/10/24 01:42:04;;;;;;;2.93;2.57;;;14.80;40.40;;;;;;10396602;28;20225;-74
2023/10/24 01:47:07;;;;;;;3.47;2.63;;;14.70;40.40;;;;;;10394630;28;20244;-74
2023/10/24 01:52:12;;;;;;;2.73;2.53;;;14.70;40.30;;;;;;10393741;28;20739;-74
2023/10/24 01:57:15;;;;;;;2.80;2.60;;;14.70;40.70;;;;;;10399206;28;20236;-74
2023/10/24 02:02:19;;;;;;;2.30;2.20;;;14.70;40.50;;;;;;10399345;28;20233;-74
2023/10/24 02:07:27;;;;;;;2.83;2.63;;;14.70;40.50;;;;;;10396454;28;20225;-74
2023/10/24 02:12:30;;;;;;;2.73;2.53;;;14.60;40.70;;;;;;10393683;28;20236;-74
2023/10/24 02:17:34;;;;;;;2.63;2.40;;;14.60;40.40;;;;;;10394963;28;20954;-72
2023/10/24 02:22:38;;;;;;;2.93;2.73;;;14.60;40.40;;;;;;10389407;28;20219;-72
2023/10/24 02:27:41;;;;;;;3.27;2.77;;;14.60;40.80;;;;;;10395736;28;20628;-72
2023/10/24 02:32:45;;;;;;;3.27;2.80;;;14.50;40.60;;;;;;10391564;28;20237;-72
2023/10/24 02:37:49;;;;;;;2.50;2.30;;;14.50;40.60;;;;;;10393537;28;20635;-72
2023/10/24 02:42:53;;;;;;;2.43;2.23;;;14.40;40.80;;;;;;10389405;28;20652;-72
2023/10/24 02:47:56;;;;;;;2.53;2.33;;;14.50;40.70;;;;;;10394001;28;20217;-71
2023/10/24 02:53:06;;;;;;;2.80;2.60;;;14.60;40.60;;;;;;10394781;28;20287;-71
2023/10/24 02:58:09;;;;;;;2.93;2.63;;;14.60;41.00;;;;;;10394299;28;20778;-71
2023/10/24 03:03:13;;;;;;;2.70;2.50;;;14.60;40.60;;;;;;10396724;28;20230;-71
2023/10/24 03:08:18;;;;;;;2.40;2.20;;;14.60;40.50;;;;;;10395120;28;20229;-71
2023/10/24 03:13:21;;;;;;;2.83;2.60;;;14.50;40.70;;;;;;10393485;28;20317;-71
2023/10/24 03:18:25;;;;;;;4.03;3.63;;;14.60;40.70;;;;;;10394479;28;20690;-71
2023/10/24 03:23:29;;;;;;;4.30;4.00;;;14.50;40.60;;;;;;10395066;28;20755;-71
2023/10/24 03:28:32;;;;;;;4.20;3.80;;;14.50;40.70;;;;;;10391899;28;20236;-71
2023/10/24 03:33:36;;;;;;;3.40;3.10;;;14.50;40.60;;;;;;10393500;28;20229;-71
2023/10/24 03:38:41;;;;;;;3.27;2.93;;;14.40;40.40;;;;;;10387847;28;20247;-71
2023/10/24 03:43:48;;;;;;;2.70;2.50;;;14.30;40.70;;;;;;10389446;28;20222;-71
2023/10/24 03:48:52;;;;;;;2.97;2.77;;;14.30;40.40;;;;;;10386896;28;20225;-72
2023/10/24 03:53:56;;;;;;;2.80;2.60;;;14.20;40.70;;;;;;10388822;28;20974;-71
2023/10/24 03:58:59;;;;;;;2.97;2.70;;;14.20;40.80;;;;;;10389120;28;20239;-71
2023/10/24 04:04:03;;;;;;;2.30;2.20;;;14.20;40.70;;;;;;10393828;28;20325;-72
2023/10/24 04:09:07;;;;;;;8.33;7.53;;;14.20;40.50;;;;;;10391052;28;20338;-71
2023/10/24 04:14:10;;;;;;;7.07;6.47;;;14.20;40.60;;;;;;10392807;28;20604;-72
2023/10/24 04:19:14;;;;;;;6.87;6.27;;;14.10;40.30;;;;;;10389620;28;20248;-71
2023/10/24 04:24:18;;;;;;;7.53;6.77;;;14.00;40.40;;;;;;10390600;28;20584;-71
2023/10/24 04:29:21;;;;;;;6.97;6.37;;;13.80;40.80;;;;;;10388976;28;20233;-72
2023/10/24 04:34:25;;;;;;;5.20;4.70;;;13.80;40.70;;;;;;10390516;28;20297;-71
2023/10/24 04:39:30;;;;;;;4.63;4.23;;;13.70;40.70;;;;;;10392523;28;20781;-72
2023/10/24 04:44:33;;;;;;;3.80;3.50;;;13.70;41.00;;;;;;10391594;28;20978;-74
2023/10/24 04:49:37;;;;;;;3.40;3.10;;;13.70;40.80;;;;;;10388080;28;20235;-72
2023/10/24 04:54:42;;;;;;;3.70;3.10;;;13.70;40.90;;;;;;10387209;28;20229;-72
2023/10/24 04:59:45;;;;;;;3.83;3.50;;;13.60;40.90;;;;;;10393472;28;21239;-73
2023/10/24 05:04:48;;;;;;;3.50;3.20;;;13.60;40.90;;;;;;10395082;28;20223;-72
2023/10/24 05:09:53;;;;;;;3.77;3.47;;;13.60;41.00;;;;;;10401706;28;20225;-76
2023/10/24 05:14:57;;;;;;;4.27;3.50;;;13.50;41.20;;;;;;10391924;28;20937;-72
2023/10/24 05:20:02;;;;;;;3.63;3.30;;;13.50;41.40;;;;;;10395292;28;20240;-73
2023/10/24 05:25:08;;;;;;;3.37;3.00;;;13.50;41.20;;;;;;10399460;28;20336;-72
2023/10/24 05:30:12;;;;;;;3.40;3.10;;;13.50;41.30;;;;;;10398856;28;20238;-72
2023/10/24 05:35:16;;;;;;;3.90;3.23;;;13.60;41.80;;;;;;10397511;28;20248;-72
2023/10/24 05:40:20;;;;;;;3.37;3.17;;;13.60;41.40;;;;;;10396509;28;20230;-72
2023/10/24 05:45:24;;;;;;;4.47;3.70;;;13.60;41.40;;;;;;10394239;28;20696;-72
2023/10/24 05:50:29;;;;;;;3.67;3.37;;;13.60;41.10;;;;;;10390918;28;20225;-72
2023/10/24 05:55:35;;;;;;;4.00;3.60;;;13.60;41.20;;;;;;10390424;28;20260;-72
2023/10/24 06:00:38;;;;;;;5.57;4.40;;;13.60;41.40;;;;;;10398235;28;20240;-72
2023/10/24 06:05:42;;;;;;;5.70;5.20;;;13.60;41.00;;;;;;10389958;28;20822;-74
2023/10/24 06:10:55;;;;;;;7.30;5.50;;;13.60;41.30;;;;;;10396951;28;20333;-73
2023/10/24 06:16:07;;;;;;;6.10;5.20;;;13.50;42.40;;;;;;10393777;28;20246;-74
2023/10/24 06:21:12;;;;;;;5.17;4.70;;;13.50;42.60;;;;;;10394307;28;20236;-74
2023/10/24 06:26:18;;;;;;;4.50;4.10;;;13.60;41.80;;;;;;10392921;28;20245;-77
2023/10/24 06:31:21;;;;;;;6.90;5.17;;;13.60;42.30;;;;;;10394854;28;20630;-77
2023/10/24 06:36:24;;;;;;;9.50;7.50;;;13.60;41.80;;;;;;10391168;28;20252;-77
2023/10/24 06:41:30;;;;;;;7.57;6.87;;;13.50;41.90;;;;;;10390198;28;20233;-77
2023/10/24 06:46:33;;;;;;;7.77;6.97;;;13.50;42.50;;;;;;10395855;28;20320;-77
2023/10/24 06:51:37;;;;;;;7.57;6.87;;;13.50;42.20;;;;;;10395277;28;20234;-77
2023/10/24 06:56:41;;;;;;;6.97;6.37;;;13.50;42.20;;;;;;10398347;28;20241;-77
2023/10/24 07:01:44;;;;;;;7.17;6.57;;;13.60;43.00;;;;;;10393980;28;20229;-77
2023/10/24 07:06:48;;;;;;;5.70;5.20;;;13.70;42.50;;;;;;10392948;28;20218;-73
2023/10/24 07:11:53;;;;;;;6.40;5.80;;;13.70;42.50;;;;;;10391740;28;20249;-77
2023/10/24 07:16:56;;;;;;;7.77;7.00;;;13.70;43.00;;;;;;10388373;28;20225;-77
2023/10/24 07:21:59;;;;;;;7.37;6.70;;;13.80;42.60;;;;;;10387689;28;20243;-73
2023/10/24 07:27:04;;;;;;;7.63;6.83;;;13.80;42.80;;;;;;10392523;28;20692;-74
2023/10/24 07:32:07;;;;;;;8.97;7.97;;;13.90;43.40;;;;;;10397125;28;20261;-74
2023/10/24 07:37:11;;;;;;;7.90;7.20;;;13.90;43.30;;;;;;10385971;28;20726;-75
2023/10/24 07:42:15;;;;;;;7.30;6.60;;;13.90;43.40;;;;;;10393052;28;20233;-74
2023/10/24 07:47:18;;;;;;;6.43;5.87;;;13.90;43.40;;;;;;10388923;28;20660;-74
2023/10/24 07:52:22;;;;;;;6.33;5.80;;;14.00;43.40;;;;;;10388429;28;20264;-75
2023/10/24 07:57:26;;;;;;;7.43;6.83;;;14.00;43.40;;;;;;10388061;28;20237;-74
2023/10/24 08:02:29;;;;;;;7.70;7.07;;;14.10;43.60;;;;;;10390879;28;20711;-74
2023/10/24 08:07:33;;;;;;;8.20;7.20;;;14.20;43.60;;;;;;10388347;28;20312;-74
2023/10/24 08:12:38;;;;;;;8.00;7.30;;;14.20;43.60;;;;;;10392076;28;20252;-75
2023/10/24 08:17:41;;;;;;;7.33;6.70;;;14.30;43.70;;;;;;10389978;28;20230;-74
2023/10/24 08:22:44;;;;;;;8.07;7.37;;;14.40;43.80;;;;;;10386194;28;20234;-74
2023/10/24 08:27:49;;;;;;;6.77;6.07;;;14.40;43.80;;;;;;10391888;28;20233;-74
2023/10/24 08:32:52;;;;;;;6.27;5.77;;;14.50;43.90;;;;;;10389617;28;20324;-74
2023/10/24 08:37:55;;;;;;;6.13;5.73;;;14.60;44.00;;;;;;10383188;28;20229;-74
2023/10/24 08:43:01;;;;;;;6.13;5.73;;;14.60;44.00;;;;;;10389522;28;20752;-74
2023/10/24 08:48:06;;;;;;;7.33;6.73;;;14.80;44.20;;;;;;10387728;28;20229;-74
2023/10/24 08:53:11;;;;;;;6.70;6.17;;;14.80;44.20;;;;;;10394027;28;20276;-74
2023/10/24 08:58:20;;;;;;;5.13;4.73;;;14.90;44.30;;;;;;10391068;28;20246;-74
2023/10/24 09:03:24;;;;;;;5.70;5.30;;;14.90;44.70;;;;;;10391943;28;20234;-74
2023/10/24 09:08:28;;;;;;;7.20;6.50;;;15.00;44.30;;;;;;10391153;28;20724;-73
2023/10/24 09:13:35;;;;;;;7.17;6.17;;;15.10;44.40;;;;;;10391014;28;20343;-74
2023/10/24 09:18:39;;;;;;;6.60;6.00;;;15.10;44.40;;;;;;10391625;28;20708;-75
2023/10/24 09:23:42;;;;;;;6.33;5.83;;;15.10;44.40;;;;;;10392304;28;20287;-75
2023/10/24 09:28:56;;;;;;;7.17;6.57;;;15.20;44.20;;;;;;10385064;28;20253;-75
2023/10/24 09:34:00;;;;;;;6.60;6.10;;;15.20;44.50;;;;;;10389465;28;20229;-75
2023/10/24 09:39:04;;;;;;;7.70;7.10;;;15.20;43.90;;;;;;10392234;28;20234;-75
2023/10/24 09:44:09;;;;;;;7.13;6.53;;;15.30;44.10;;;;;;10388525;28;20256;-75
2023/10/24 09:49:13;;;;;;;7.30;6.77;;;15.30;44.60;;;;;;10394565;28;20257;-76
2023/10/24 09:54:17;;;;;;;7.47;6.73;;;15.30;44.60;;;;;;10393800;28;20258;-73
2023/10/24 09:59:23;;;;;;;7.30;6.73;;;15.30;44.50;;;;;;10398401;28;20273;-73
2023/10/24 10:04:26;;;;;;;7.60;7.00;;;15.40;44.70;;;;;;10390051;28;20293;-74
2023/10/24 10:09:30;;;;;;;6.17;5.77;;;15.40;44.70;;;;;;10399053;28;20715;-76
2023/10/24 10:14:41;;;;;;;7.47;6.77;;;15.40;44.70;;;;;;10391565;28;20233;-77
2023/10/24 10:20:03;;;;;;;7.67;7.03;;;15.30;45.10;;;;;;10396659;28;20259;-76
2023/10/24 10:25:30;;;;;;;7.23;6.60;;;15.30;45.70;;;;;;10395745;28;20692;-76
2023/10/24 10:30:40;;;;;;;7.83;7.17;;;15.30;45.50;;;;;;10397346;28;20654;-77
2023/10/24 10:36:02;;;;;;;7.70;7.10;;;15.30;45.30;;;;;;10390699;28;20229;-78
2023/10/24 10:41:38;;;;;;;7.37;6.77;;;15.30;44.60;;;;;;10389739;28;20265;-78
2023/10/24 10:46:42;;;;;;;8.27;7.67;;;15.30;46.20;;;;;;10394397;28;20221;-78
2023/10/24 10:51:45;;;;;;;8.93;8.17;;;15.30;45.10;;;;;;10397805;28;20782;-78
2023/10/24 10:56:49;;;;;;;9.37;8.50;;;15.30;44.60;;;;;;10393376;28;20220;-78
2023/10/24 11:02:10;;;;;;;10.90;9.90;;;15.30;45.30;;;;;;10388275;28;20689;-78
2023/10/24 11:07:14;;;;;;;9.53;8.73;;;15.30;46.40;;;;;;10388695;28;20810;-75
2023/10/24 11:12:25;;;;;;;10.70;9.70;;;15.30;44.80;;;;;;10388422;28;21239;-76
2023/10/24 11:17:32;;;;;;;9.67;8.83;;;15.30;46.60;;;;;;10392485;28;20225;-76
2023/10/24 11:22:35;;;;;;;9.93;9.10;;;15.40;46.10;;;;;;10381343;28;20868;-76
2023/10/24 11:27:39;;;;;;;9.67;8.87;;;15.40;45.60;;;;;;10380740;28;20225;-76
2023/10/24 11:32:44;;;;;;;9.20;8.50;;;15.50;45.60;;;;;;10369953;28;20232;-76
2023/10/24 11:37:47;;;;;;;9.73;8.83;;;15.50;46.00;;;;;;10378740;28;20221;-76
2023/10/24 11:42:51;;;;;;;10.30;9.43;;;15.60;45.50;;;;;;10382852;28;20581;-76
2023/10/24 11:47:56;;;;;;;9.47;8.67;;;15.60;45.50;;;;;;10379857;28;20229;-76
2023/10/24 11:52:59;;;;;;;10.23;9.43;;;15.60;46.10;;;;;;10374029;28;20234;-76
2023/10/24 11:58:06;;;;;;;9.50;8.67;;;15.70;45.60;;;;;;10378786;28;20221;-76
2023/10/24 12:03:10;;;;;;;9.57;8.77;;;15.70;45.60;;;;;;10381486;28;20379;-76
2023/10/24 12:08:14;;;;;;;8.53;7.83;;;15.70;46.00;;;;;;10381159;28;20225;-74
2023/10/24 12:13:17;;;;;;;9.70;8.93;;;15.80;45.50;;;;;;10379903;28;20226;-74
2023/10/24 12:18:23;;;;;;;9.30;8.50;;;15.80;45.50;;;;;;10381129;28;20229;-74
2023/10/24 12:23:27;;;;;;;9.33;8.63;;;15.90;46.00;;;;;;10382224;28;20718;-74
2023/10/24 12:28:32;;;;;;;10.30;9.40;;;15.90;45.50;;;;;;10374452;28;20878;-74
2023/10/24 12:33:37;;;;;;;9.60;8.90;;;15.90;45.60;;;;;;10378796;28;20336;-74
2023/10/24 12:38:40;;;;;;;9.57;8.87;;;15.90;46.00;;;;;;10376435;28;20225;-74
2023/10/24 12:43:43;;;;;;;9.40;8.60;;;15.90;45.60;;;;;;10382665;28;20221;-77
2023/10/24 12:48:48;;;;;;;8.87;8.07;;;15.90;45.70;;;;;;10369133;28;20225;-74
2023/10/24 12:54:04;;;;;;;8.23;7.53;;;15.90;46.50;;;;;;10370717;28;20344;-74
2023/10/24 12:59:07;;;;;;;11.40;10.40;;;15.90;46.00;;;;;;10373457;28;20229;-74
2023/10/24 13:04:11;;;;;;;11.63;10.53;;;16.00;46.30;;;;;;10370410;28;20313;-74
2023/10/24 13:09:15;;;;;;;10.60;9.70;;;16.00;46.70;;;;;;10366881;28;20252;-74
2023/10/24 13:14:18;;;;;;;10.50;9.53;;;16.00;46.40;;;;;;10361409;28;20269;-75
2023/10/24 13:19:23;;;;;;;10.10;9.20;;;16.00;46.50;;;;;;10372953;28;20232;-74
2023/10/24 13:24:27;;;;;;;9.67;8.97;;;15.90;47.10;;;;;;10385270;28;20225;-74
2023/10/24 13:29:30;;;;;;;11.97;10.87;;;15.90;46.60;;;;;;10392796;28;20316;-75
2023/10/24 13:34:34;;;;;;;13.93;12.73;;;15.90;46.90;;;;;;10387659;28;20240;-74
2023/10/24 13:39:40;;;;;;;12.67;11.67;;;15.80;47.60;;;;;;10393752;28;20222;-74
2023/10/24 13:44:44;;;;;;;12.40;11.33;;;15.80;47.30;;;;;;10390488;28;20256;-74
2023/10/24 13:49:49;;;;;;;11.70;10.67;;;15.80;47.30;;;;;;10390681;28;20238;-74
2023/10/24 13:54:52;;;;;;;12.33;11.30;;;15.80;48.20;;;;;;10395588;28;20366;-75
2023/10/24 13:59:55;;;;;;;12.40;11.30;;;15.80;47.80;;;;;;10386508;28;20236;-75
2023/10/24 14:05:00;;;;;;;10.63;9.67;;;15.80;48.00;;;;;;10387420;28;20233;-75
2023/10/24 14:10:04;;;;;;;11.37;10.33;;;15.80;48.70;;;;;;10392028;28;20260;-75
2023/10/24 14:15:08;;;;;;;10.17;9.17;;;15.80;48.20;;;;;;10386526;28;20317;-74
2023/10/24 14:20:12;;;;;;;10.17;9.27;;;15.80;48.30;;;;;;10389751;28;20229;-74
2023/10/24 14:25:16;;;;;;;7.03;6.40;;;15.90;49.00;;;;;;10388535;28;20700;-74
2023/10/24 14:30:19;;;;;;;19.13;17.13;;;15.90;48.30;;;;;;10392593;28;20234;-74
2023/10/24 14:35:23;;;;;;;7.77;7.07;;;15.90;48.20;;;;;;10389290;28;20229;-76
2023/10/24 14:40:27;;;;;;;8.63;7.80;;;16.00;48.80;;;;;;10385853;28;20229;-77
2023/10/24 14:45:30;;;;;;;6.60;6.00;;;16.10;48.30;;;;;;10391375;28;20226;-77
2023/10/24 14:50:35;;;;;;;6.70;5.97;;;16.10;48.20;;;;;;10385633;28;20257;-76
2023/10/24 14:55:38;;;;;;;7.00;6.30;;;16.10;48.80;;;;;;10384863;28;20226;-76
2023/10/24 15:00:44;;;;;;;5.83;5.43;;;16.20;48.30;;;;;;10389996;28;20226;-76
2023/10/24 15:05:50;;;;;;;5.53;5.13;;;16.20;48.20;;;;;;10388674;28;20257;-76
2023/10/24 15:10:53;;;;;;;5.23;4.80;;;16.20;48.90;;;;;;10388688;28;20230;-76
2023/10/24 15:15:57;;;;;;;5.00;4.70;;;16.20;48.30;;;;;;10381712;28;20734;-76
2023/10/24 15:21:02;;;;;;;6.33;5.80;;;16.20;48.20;;;;;;10384638;28;20237;-76
2023/10/24 15:26:06;;;;;;;6.93;6.43;;;16.30;48.70;;;;;;10386114;28;20227;-76
2023/10/24 15:31:10;;;;;;;6.27;5.87;;;16.30;48.20;;;;;;10381229;28;20244;-76
2023/10/24 15:36:14;;;;;;;7.07;6.43;;;16.30;48.00;;;;;;10385627;28;20724;-76
2023/10/24 15:41:17;;;;;;;6.43;5.80;;;16.40;48.50;;;;;;10387952;28;20232;-76
2023/10/24 15:46:21;;;;;;;6.60;6.07;;;16.40;48.00;;;;;;10384538;28;20585;-77
2023/10/24 15:51:26;;;;;;;6.93;6.33;;;16.40;48.00;;;;;;10386264;28;20225;-77
2023/10/24 15:56:29;;;;;;;7.00;6.50;;;16.40;48.40;;;;;;10380246;28;20624;-76
2023/10/24 16:01:32;;;;;;;7.13;6.63;;;16.40;48.20;;;;;;10379421;28;20237;-75
2023/10/24 16:06:37;;;;;;;6.07;5.57;;;16.40;48.30;;;;;;10383367;28;20571;-73
2023/10/24 16:11:40;;;;;;;6.83;6.33;;;16.50;49.40;;;;;;10383567;28;20312;-73
2023/10/24 16:16:43;;;;;;;6.67;6.07;;;16.50;48.30;;;;;;10377436;28;20224;-72
2023/10/24 16:21:48;;;;;;;7.60;7.00;;;16.50;48.40;;;;;;10384361;28;20226;-72
2023/10/24 16:26:52;;;;;;;7.03;6.47;;;16.50;48.90;;;;;;10383850;28;20226;-72
2023/10/24 16:31:55;;;;;;;6.60;6.00;;;16.50;48.20;;;;;;10383107;28;20713;-72
2023/10/24 16:36:59;;;;;;;7.63;7.03;;;16.50;48.30;;;;;;10384299;28;20242;-72
2023/10/24 16:42:04;;;;;;;7.10;6.50;;;16.50;48.70;;;;;;10386077;28;20806;-72
2023/10/24 16:47:07;;;;;;;7.40;6.80;;;16.50;48.40;;;;;;10380759;28;20221;-72
2023/10/24 16:52:12;;;;;;;8.67;7.87;;;16.50;48.20;;;;;;10385131;28;20726;-72
2023/10/24 16:57:15;;;;;;;8.43;7.73;;;16.50;48.60;;;;;;10386278;28;20233;-75
2023/10/24 17:02:19;;;;;;;10.13;9.17;;;16.50;48.20;;;;;;10390837;28;20221;-75
2023/10/24 17:07:24;;;;;;;8.07;7.27;;;16.40;48.90;;;;;;10391441;28;20617;-76
2023/10/24 17:12:27;;;;;;;8.27;7.50;;;16.30;48.50;;;;;;10389040;28;20232;-75
2023/10/24 17:17:30;;;;;;;7.07;6.57;;;16.40;48.50;;;;;;10385447;28;20322;-75
2023/10/24 17:22:35;;;;;;;7.53;6.93;;;16.40;48.40;;;;;;10390065;28;20233;-73
2023/10/24 17:27:38;;;;;;;7.33;6.83;;;16.30;48.70;;;;;;10395021;28;20237;-73
2023/10/24 17:32:42;;;;;;;7.67;7.07;;;16.40;48.50;;;;;;10385333;28;20328;-72
2023/10/24 17:37:46;;;;;;;7.40;6.87;;;16.40;48.40;;;;;;10392836;28;20229;-72
2023/10/24 17:42:53;;;;;;;8.40;7.70;;;16.40;48.80;;;;;;10386750;28;20493;-72
2023/10/24 17:47:56;;;;;;;8.00;7.43;;;16.40;48.60;;;;;;10390951;28;20232;-72
2023/10/24 17:53:03;;;;;;;8.13;7.53;;;16.30;48.30;;;;;;10390832;28;20242;-72
2023/10/24 17:58:07;;;;;;;8.10;7.30;;;16.30;48.90;;;;;;10391129;28;20257;-73
2023/10/24 18:03:10;;;;;;;7.80;7.20;;;16.20;48.60;;;;;;10394155;28;20226;-75
2023/10/24 18:08:15;;;;;;;7.40;6.80;;;16.30;48.70;;;;;;10384505;28;20253;-75
2023/10/24 18:13:19;;;;;;;9.30;8.50;;;16.30;49.00;;;;;;10391108;28;20222;-77
2023/10/24 18:18:22;;;;;;;8.47;7.77;;;16.30;48.70;;;;;;10387402;28;20820;-76
2023/10/24 18:23:27;;;;;;;9.13;8.40;;;16.30;48.70;;;;;;10379477;28;20238;-76
2023/10/24 18:28:30;;;;;;;8.27;7.67;;;16.30;48.90;;;;;;10387828;28;20229;-72
2023/10/24 18:33:34;;;;;;;9.37;8.57;;;16.30;48.50;;;;;;10388427;28;20222;-75
2023/10/24 18:38:41;;;;;;;9.23;8.47;;;16.30;48.50;;;;;;10385251;28;20226;-72
2023/10/24 18:43:45;;;;;;;8.77;8.07;;;16.30;49.40;;;;;;10389822;28;20303;-73
2023/10/24 18:48:48;;;;;;;10.03;9.23;;;16.20;48.80;;;;;;10382327;28;20229;-74
2023/10/24 18:53:53;;;;;;;10.87;10.00;;;16.30;48.90;;;;;;10379172;28;20799;-74
2023/10/24 18:58:56;;;;;;;11.17;10.17;;;16.30;49.30;;;;;;10383424;28;20217;-73
2023/10/24 19:03:59;;;;;;;10.30;9.47;;;16.20;48.80;;;;;;10383045;28;20240;-75
2023/10/24 19:09:05;;;;;;;8.27;7.57;;;16.20;49.00;;;;;;10382969;28;20222;-75
2023/10/24 19:14:10;;;;;;;8.17;7.50;;;16.20;49.40;;;;;;10383110;28;20230;-73
2023/10/24 19:19:16;;;;;;;7.30;6.80;;;16.20;49.20;;;;;;10383339;28;20257;-73
2023/10/24 19:24:22;;;;;;;7.10;6.60;;;16.20;49.10;;;;;;10381913;28;20688;-77
2023/10/24 19:29:26;;;;;;;6.60;6.00;;;16.20;49.30;;;;;;10379512;28;20240;-77
2023/10/24 19:34:29;;;;;;;6.83;6.33;;;16.30;48.90;;;;;;10377411;28;20234;-77
2023/10/24 19:39:35;;;;;;;6.80;6.20;;;16.20;48.90;;;;;;10382132;28;20233;-75
2023/10/24 19:44:38;;;;;;;6.70;6.20;;;16.20;49.30;;;;;;10385955;28;20751;-75
2023/10/24 19:49:44;;;;;;;6.90;6.40;;;16.20;49.10;;;;;;10384822;28;20280;-75
2023/10/24 19:54:50;;;;;;;6.77;6.20;;;16.10;49.60;;;;;;10382244;28;20692;-75
2023/10/24 19:59:56;;;;;;;6.33;5.83;;;16.10;49.50;;;;;;10382855;28;20307;-75
2023/10/24 20:05:00;;;;;;;6.70;6.20;;;16.10;49.30;;;;;;10382093;28;20233;-75
2023/10/24 20:10:06;;;;;;;6.23;5.83;;;16.10;49.10;;;;;;10385164;28;20258;-75
2023/10/24 20:15:29;;;;;;;6.73;6.13;;;16.10;49.70;;;;;;10388800;28;20228;-75
2023/10/24 20:20:35;;;;;;;6.47;5.87;;;16.10;49.30;;;;;;10384575;28;20232;-76
2023/10/24 20:25:43;;;;;;;6.40;5.63;;;16.10;49.20;;;;;;10383812;28;20228;-76
2023/10/24 20:30:46;;;;;;;7.10;6.60;;;16.20;49.60;;;;;;10388087;28;20296;-75
2023/10/24 20:35:49;;;;;;;6.90;6.40;;;16.20;49.10;;;;;;10388785;28;20706;-75
2023/10/24 20:40:54;;;;;;;6.90;6.33;;;16.20;49.00;;;;;;10387611;28;20237;-75
2023/10/24 20:46:00;;;;;;;7.20;6.70;;;16.10;49.30;;;;;;10387283;28;20225;-75
2023/10/24 20:51:04;;;;;;;7.50;7.00;;;16.10;49.00;;;;;;10389090;28;20229;-75
2023/10/24 20:56:09;;;;;;;7.10;6.50;;;16.00;49.20;;;;;;10386002;28;20309;-75
2023/10/24 21:01:13;;;;;;;7.73;6.93;;;15.90;49.60;;;;;;10383040;28;20238;-75
2023/10/24 21:06:16;;;;;;;7.03;6.53;;;15.90;49.60;;;;;;10386717;28;20250;-75
2023/10/24 21:11:21;;;;;;;7.50;6.90;;;15.90;49.50;;;;;;10385156;28;20239;-75
2023/10/24 21:16:26;;;;;;;7.10;6.60;;;15.80;50.00;;;;;;10388404;28;20321;-75
2023/10/24 21:21:29;;;;;;;7.00;6.50;;;15.80;50.10;;;;;;10385827;28;20791;-75
2023/10/24 21:26:34;;;;;;;7.47;6.97;;;15.90;49.70;;;;;;10386959;28;20240;-77
2023/10/24 21:31:37;;;;;;;6.73;6.23;;;15.80;49.80;;;;;;10390435;28;20226;-75
2023/10/24 21:36:40;;;;;;;6.37;5.90;;;15.80;49.60;;;;;;10390167;28;20324;-75
2023/10/24 21:41:45;;;;;;;7.03;6.43;;;15.80;49.60;;;;;;10392233;28;20221;-75
2023/10/24 21:46:48;;;;;;;6.33;5.83;;;15.80;49.90;;;;;;10390292;28;20233;-74
2023/10/24 21:51:51;;;;;;;6.10;5.70;;;15.80;49.70;;;;;;10393647;28;20631;-74
2023/10/24 21:56:56;;;;;;;6.90;6.40;;;15.70;49.70;;;;;;10396305;28;20233;-73
2023/10/24 22:01:59;;;;;;;6.00;5.60;;;15.80;50.00;;;;;;10396924;28;20657;-77
2023/10/24 22:07:03;;;;;;;6.80;6.20;;;15.80;49.70;;;;;;10387449;28;20236;-74
2023/10/24 22:12:09;;;;;;;6.50;6.00;;;15.80;49.50;;;;;;10388096;28;20253;-74
2023/10/24 22:17:12;;;;;;;6.67;6.17;;;15.80;49.80;;;;;;10388236;28;20218;-74
2023/10/24 22:22:15;;;;;;;6.73;6.23;;;15.80;49.50;;;;;;10393342;28;20257;-75
2023/10/24 22:27:19;;;;;;;7.30;6.70;;;15.80;49.60;;;;;;10395862;28;20248;-75
2023/10/24 22:32:23;;;;;;;6.33;5.90;;;15.80;49.90;;;;;;10390867;28;20288;-75
2023/10/24 22:37:26;;;;;;;6.10;5.70;;;15.70;49.40;;;;;;10397389;28;20753;-75
2023/10/24 22:42:31;;;;;;;6.40;5.90;;;15.70;49.70;;;;;;10387710;28;20261;-75
2023/10/24 22:47:35;;;;;;;6.47;5.97;;;15.60;50.20;;;;;;10392309;28;20241;-75
2023/10/24 22:52:38;;;;;;;6.60;6.10;;;15.60;50.00;;;;;;10392864;28;20233;-77
2023/10/24 22:57:43;;;;;;;6.00;5.60;;;15.60;50.10;;;;;;10386743;28;20229;-77
2023/10/24 23:02:46;;;;;;;5.60;5.20;;;15.60;50.30;;;;;;10385211;28;20230;-77
2023/10/24 23:07:50;;;;;;;4.90;4.60;;;15.60;50.10;;;;;;10389716;28;20319;-77
2023/10/24 23:12:55;;;;;;;5.40;5.00;;;15.60;49.80;;;;;;10393690;28;20956;-74
2023/10/24 23:17:58;;;;;;;4.97;4.67;;;15.70;50.20;;;;;;10384759;28;20321;-74
2023/10/24 23:23:01;;;;;;;4.40;4.10;;;15.70;49.70;;;;;;10387350;28;20225;-74
2023/10/24 23:28:06;;;;;;;3.67;3.47;;;15.70;49.40;;;;;;10386419;28;20237;-74
2023/10/24 23:33:09;;;;;;;4.07;3.77;;;15.70;49.60;;;;;;10383818;28;20228;-74
2023/10/24 23:38:13;;;;;;;3.80;3.60;;;15.60;49.20;;;;;;10383756;28;20225;-74
2023/10/24 23:43:17;;;;;;;3.73;3.43;;;15.60;49.40;;;;;;10386569;28;20230;-74
2023/10/24 23:48:20;;;;;;;3.70;3.40;;;15.60;49.60;;;;;;10386300;28;20238;-74
2023/10/24 23:53:23;;;;;;;4.07;3.77;;;15.70;49.30;;;;;;10386878;28;20225;-74
2023/10/24 23:58:28;;;;;;;4.20;3.90;;;15.60;49.40;;;;;;10383600;28;20740;-74
